Time;durP1;ratioP1;P1;durP2;ratioP2;P2;SDS_P1;SDS_P2;PMS_P1;PMS_P2;Temp;Humidity;BMP_temperature;BMP_pressure;BME280_temperature;BME280_humidity;BME280_pressure;Samples;Min_cycle;Max_cycle;Signal;HPM_P1;HPM_P2
2021/10/07 00:02:23;;;;;;;;;;;;;;;11.13;100.00;100013.22;6897999;20;7976;-44
2021/10/07 00:04:51;;;;;;;;;;;;;;;11.05;100.00;100016.38;6897134;20;7656;-43
2021/10/07 00:07:19;;;;;;;;;;;;;;;10.96;100.00;100014.22;6895613;20;7602;-43
2021/10/07 00:09:46;;;;;;;;;;;;;;;10.93;100.00;100014.41;6897490;20;7514;-43
2021/10/07 00:12:14;;;;;;;;;;;;;;;11.14;100.00;100015.84;6894006;20;8665;-42
2021/10/07 00:14:41;;;;;;;;;;;;;;;11.45;100.00;100016.69;6897835;20;7529;-43
2021/10/07 00:17:09;;;;;;;;;;;;;;;11.00;100.00;100013.06;6896319;20;7526;-43
2021/10/07 00:19:37;;;;;;;;;;;;;;;11.08;100.00;100013.50;6896990;20;18882;-44
2021/10/07 00:22:04;;;;;;;;;;;;;;;11.03;100.00;100007.53;6895794;20;17779;-43
2021/10/07 00:24:32;;;;;;;;;;;;;;;11.16;100.00;100005.88;6894334;20;18710;-44
2021/10/07 00:27:00;;;;;;;;;;;;;;;11.06;100.00;100019.91;6892658;20;16195;-44
2021/10/07 00:32:45;;;;;;;;;;;;;;;11.07;100.00;100017.16;6893973;20;7526;-44
2021/10/07 00:40:05;;;;;;;;;;;;;;;11.25;100.00;100025.97;6895939;20;8043;-43
2021/10/07 00:42:34;;;;;;;;;;;;;;;11.17;100.00;100026.41;6895054;20;7976;-44
2021/10/07 00:45:03;;;;;;;;;;;;;;;11.09;100.00;100020.63;6896533;20;7541;-43
2021/10/07 00:47:30;;;;;;;;;;;;;;;11.04;100.00;100027.22;6893997;20;7643;-45
2021/10/07 00:49:58;;;;;;;;;;;;;;;10.88;100.00;100036.16;6895456;20;17600;-44
2021/10/07 00:52:25;;;;;;;;;;;;;;;10.83;100.00;100040.94;6895158;20;7573;-43
2021/10/07 00:54:55;;;;;;;;;;;;;;;10.90;100.00;100036.94;6894932;20;17209;-43
2021/10/07 00:57:23;;;;;;;;;;;;;;;10.96;100.00;100043.78;6891457;20;7669;-44
2021/10/07 00:59:52;;;;;;;;;;;;;;;11.06;100.00;100047.69;6895207;20;19361;-44
2021/10/07 01:02:20;;;;;;;;;;;;;;;11.30;100.00;100039.13;6896850;20;7600;-44
2021/10/07 01:04:48;;;;;;;;;;;;;;;11.03;100.00;100041.59;6895371;20;17068;-44
2021/10/07 01:07:16;;;;;;;;;;;;;;;10.96;100.00;100041.09;6893024;20;20118;-44
2021/10/07 01:09:45;;;;;;;;;;;;;;;11.13;100.00;100048.16;6895507;20;19378;-44
2021/10/07 01:12:13;;;;;;;;;;;;;;;11.18;100.00;100041.56;6892785;20;8100;-43
2021/10/07 01:14:52;;;;;;;;;;;;;;;11.05;100.00;100045.06;6896573;20;7643;-44
2021/10/07 01:17:31;;;;;;;;;;;;;;;11.30;100.00;100039.13;6893387;20;19236;-43
2021/10/07 01:20:04;;;;;;;;;;;;;;;11.14;100.00;100050.78;6894039;20;7518;-44
2021/10/07 01:22:32;;;;;;;;;;;;;;;11.12;100.00;100052.69;6895055;20;7571;-44
2021/10/07 01:25:00;;;;;;;;;;;;;;;11.46;100.00;100045.34;6893706;20;17262;-44
2021/10/07 01:27:31;;;;;;;;;;;;;;;11.42;100.00;100049.16;6894033;20;7664;-45
2021/10/07 01:30:04;;;;;;;;;;;;;;;11.52;100.00;100049.47;6894652;20;7545;-45
2021/10/07 01:32:35;;;;;;;;;;;;;;;11.25;100.00;100057.34;6894953;20;7514;-44
2021/10/07 01:35:06;;;;;;;;;;;;;;;11.25;100.00;100060.03;6895359;20;7534;-44
2021/10/07 01:37:34;;;;;;;;;;;;;;;11.06;100.00;100061.13;6891961;20;7637;-44
2021/10/07 01:40:05;;;;;;;;;;;;;;;10.99;100.00;100057.03;6892413;20;7591;-44
2021/10/07 01:42:32;;;;;;;;;;;;;;;10.88;100.00;100064.84;6893392;20;7510;-44
2021/10/07 01:45:00;;;;;;;;;;;;;;;10.85;100.00;100065.00;6893786;20;19007;-43
2021/10/07 01:47:27;;;;;;;;;;;;;;;11.19;100.00;100062.13;6891629;20;7510;-43
2021/10/07 01:49:55;;;;;;;;;;;;;;;11.18;100.00;100068.44;6892286;20;7542;-44
2021/10/07 01:52:22;;;;;;;;;;;;;;;11.28;100.00;100062.56;6890596;20;7521;-45
2021/10/07 01:54:50;;;;;;;;;;;;;;;11.32;100.00;100064.09;6893713;20;16786;-45
2021/10/07 01:57:17;;;;;;;;;;;;;;;11.07;100.00;100060.16;6891004;20;18036;-43
2021/10/07 01:59:45;;;;;;;;;;;;;;;11.00;100.00;100061.44;6894036;20;16916;-44
2021/10/07 02:02:12;;;;;;;;;;;;;;;10.97;100.00;100059.78;6893834;20;18352;-44
2021/10/07 02:04:40;;;;;;;;;;;;;;;10.92;100.00;100061.00;6891249;20;19548;-48
2021/10/07 02:07:08;;;;;;;;;;;;;;;10.92;100.00;100064.56;6891944;20;14981;-47
2021/10/07 02:09:35;;;;;;;;;;;;;;;10.87;100.00;100060.41;6892594;20;20806;-47
2021/10/07 02:12:03;;;;;;;;;;;;;;;11.03;100.00;100072.00;6891260;20;7565;-49
2021/10/07 02:14:31;;;;;;;;;;;;;;;11.02;100.00;100066.75;6890521;20;18677;-48
2021/10/07 02:16:58;;;;;;;;;;;;;;;11.09;100.00;100071.69;6892373;20;18161;-44
2021/10/07 02:19:26;;;;;;;;;;;;;;;11.03;100.00;100066.63;6894344;20;13736;-44
2021/10/07 02:21:53;;;;;;;;;;;;;;;10.96;100.00;100073.34;6893176;20;16079;-48
2021/10/07 02:24:21;;;;;;;;;;;;;;;10.96;100.00;100066.13;6893835;20;15813;-48
2021/10/07 02:26:48;;;;;;;;;;;;;;;11.03;100.00;100068.47;6892879;20;8026;-46
2021/10/07 02:29:16;;;;;;;;;;;;;;;10.96;100.00;100070.66;6891235;20;16840;-45
2021/10/07 02:31:44;;;;;;;;;;;;;;;11.19;100.00;100070.19;6890887;20;7627;-46
2021/10/07 02:34:11;;;;;;;;;;;;;;;11.24;100.00;100077.97;6894202;20;14645;-43
2021/10/07 02:36:39;;;;;;;;;;;;;;;11.22;100.00;100069.16;6891869;20;19264;-44
2021/10/07 02:39:06;;;;;;;;;;;;;;;11.27;100.00;100076.94;6887220;20;18555;-44
2021/10/07 02:41:34;;;;;;;;;;;;;;;11.14;100.00;100080.34;6893704;20;7530;-48
2021/10/07 02:44:02;;;;;;;;;;;;;;;11.16;100.00;100072.16;6893347;20;7522;-43
2021/10/07 02:46:30;;;;;;;;;;;;;;;11.09;100.00;100074.38;6891835;20;20238;-45
2021/10/07 02:48:57;;;;;;;;;;;;;;;11.21;100.00;100068.25;6889241;20;7986;-45
2021/10/07 02:51:25;;;;;;;;;;;;;;;11.10;100.00;100075.22;6887391;20;19048;-44
2021/10/07 02:53:52;;;;;;;;;;;;;;;11.01;100.00;100071.25;6890535;20;8784;-49
2021/10/07 02:56:20;;;;;;;;;;;;;;;11.28;100.00;100078.69;6891450;20;19859;-46
2021/10/07 02:58:47;;;;;;;;;;;;;;;11.03;100.00;100069.31;6887838;20;11978;-44
2021/10/07 03:01:15;;;;;;;;;;;;;;;11.11;100.00;100071.56;6892464;20;7537;-43
2021/10/07 03:03:43;;;;;;;;;;;;;;;11.08;100.00;100071.75;6891663;20;7587;-46
2021/10/07 03:06:10;;;;;;;;;;;;;;;11.15;100.00;100073.13;6892831;20;7992;-45
2021/10/07 03:08:39;;;;;;;;;;;;;;;11.04;100.00;100075.59;6888381;20;19205;-44
2021/10/07 03:11:07;;;;;;;;;;;;;;;11.07;100.00;100068.22;6891435;20;16149;-43
2021/10/07 03:13:35;;;;;;;;;;;;;;;10.74;100.00;100068.28;6890440;20;16458;-44
2021/10/07 03:16:03;;;;;;;;;;;;;;;10.83;100.00;100066.94;6892165;20;17051;-45
2021/10/07 03:18:30;;;;;;;;;;;;;;;10.74;100.00;100073.66;6889645;20;7613;-43
2021/10/07 03:20:58;;;;;;;;;;;;;;;10.91;100.00;100067.34;6891924;20;18638;-43
2021/10/07 03:23:26;;;;;;;;;;;;;;;10.69;100.00;100071.25;6896122;20;7637;-44
2021/10/07 03:25:53;;;;;;;;;;;;;;;10.82;100.00;100070.53;6898443;20;7585;-45
2021/10/07 03:28:21;;;;;;;;;;;;;;;10.68;100.00;100065.97;6894497;20;7526;-43
2021/10/07 03:30:48;;;;;;;;;;;;;;;10.74;100.00;100063.81;6898572;20;7510;-45
2021/10/07 03:33:17;;;;;;;;;;;;;;;10.68;100.00;100076.69;6895971;20;7518;-44
2021/10/07 03:35:44;;;;;;;;;;;;;;;10.61;100.00;100069.94;6898104;20;7526;-44
2021/10/07 03:38:12;;;;;;;;;;;;;;;10.58;100.00;100067.41;6893751;20;7656;-44
2021/10/07 03:40:40;;;;;;;;;;;;;;;10.58;100.00;100073.66;6897781;20;19050;-46
2021/10/07 03:43:07;;;;;;;;;;;;;;;10.69;100.00;100076.63;6896245;20;15799;-43
2021/10/07 03:45:35;;;;;;;;;;;;;;;10.49;100.00;100075.03;6894253;20;17388;-45
2021/10/07 03:48:03;;;;;;;;;;;;;;;10.61;100.00;100073.50;6895246;20;16648;-44
2021/10/07 03:50:30;;;;;;;;;;;;;;;10.54;100.00;100077.47;6898002;20;7517;-43
2021/10/07 03:52:58;;;;;;;;;;;;;;;10.56;100.00;100075.56;6894311;20;16849;-44
2021/10/07 03:55:25;;;;;;;;;;;;;;;10.62;100.00;100072.53;6896775;20;18593;-43
2021/10/07 03:57:54;;;;;;;;;;;;;;;10.90;100.00;100070.97;6894226;20;19020;-43
2021/10/07 04:00:22;;;;;;;;;;;;;;;10.55;100.00;100069.31;6894940;20;18949;-44
2021/10/07 04:02:49;;;;;;;;;;;;;;;10.59;100.00;100070.03;6896209;20;18448;-44
2021/10/07 04:05:17;;;;;;;;;;;;;;;10.56;100.00;100067.53;6895854;20;7577;-43
2021/10/07 04:07:45;;;;;;;;;;;;;;;10.47;100.00;100076.06;6896506;20;7621;-43
2021/10/07 04:10:12;;;;;;;;;;;;;;;10.45;100.00;100073.50;6895864;20;7522;-44
2021/10/07 04:12:40;;;;;;;;;;;;;;;10.48;100.00;100072.44;6894650;20;7526;-44
2021/10/07 04:15:08;;;;;;;;;;;;;;;10.43;100.00;100075.38;6896960;20;11686;-45
2021/10/07 04:17:36;;;;;;;;;;;;;;;10.45;100.00;100081.53;6894832;20;10899;-44
2021/10/07 04:20:05;;;;;;;;;;;;;;;10.42;100.00;100081.69;6894124;20;19335;-45
2021/10/07 04:22:33;;;;;;;;;;;;;;;10.38;100.00;100081.97;6895825;20;7577;-44
2021/10/07 04:25:00;;;;;;;;;;;;;;;10.32;100.00;100078.66;6895877;20;7530;-46
2021/10/07 04:27:29;;;;;;;;;;;;;;;10.37;100.00;100080.19;6894639;20;18512;-44
2021/10/07 04:29:58;;;;;;;;;;;;;;;10.33;100.00;100090.25;6895242;20;18171;-44
2021/10/07 04:32:26;;;;;;;;;;;;;;;10.33;100.00;100091.13;6892960;20;19041;-44
2021/10/07 04:34:53;;;;;;;;;;;;;;;10.27;100.00;100094.13;6896258;20;8052;-44
2021/10/07 04:37:21;;;;;;;;;;;;;;;10.29;100.00;100094.94;6894832;20;7556;-44
2021/10/07 04:39:49;;;;;;;;;;;;;;;10.32;100.00;100094.75;6892220;20;19805;-44
2021/10/07 04:42:17;;;;;;;;;;;;;;;10.25;100.00;100090.63;6895993;20;7589;-45
2021/10/07 04:44:44;;;;;;;;;;;;;;;10.39;100.00;100089.91;6894555;20;7524;-43
2021/10/07 04:47:12;;;;;;;;;;;;;;;10.35;100.00;100093.72;6894106;20;18871;-45
2021/10/07 04:49:39;;;;;;;;;;;;;;;10.26;100.00;100095.03;6895841;20;20009;-43
2021/10/07 04:52:07;;;;;;;;;;;;;;;10.24;100.00;100104.13;6893722;20;7585;-44
2021/10/07 04:54:35;;;;;;;;;;;;;;;10.28;100.00;100103.91;6894329;20;7601;-43
2021/10/07 04:57:02;;;;;;;;;;;;;;;10.26;100.00;100099.53;6894616;20;7530;-43
2021/10/07 04:59:30;;;;;;;;;;;;;;;10.26;100.00;100100.41;6896113;20;7540;-44
2021/10/07 05:01:57;;;;;;;;;;;;;;;10.26;100.00;100102.22;6894983;20;13246;-43
2021/10/07 05:04:25;;;;;;;;;;;;;;;10.41;100.00;100092.53;6892683;20;16603;-44
2021/10/07 05:06:53;;;;;;;;;;;;;;;10.16;100.00;100093.78;6894167;20;7703;-45
2021/10/07 05:09:20;;;;;;;;;;;;;;;10.18;100.00;100097.25;6892809;20;7630;-44
2021/10/07 05:11:48;;;;;;;;;;;;;;;10.33;100.00;100099.16;6893422;20;12971;-43
2021/10/07 05:14:15;;;;;;;;;;;;;;;10.25;100.00;100096.00;6892748;20;19672;-45
2021/10/07 05:16:43;;;;;;;;;;;;;;;10.17;100.00;100103.59;6893630;20;7514;-44
2021/10/07 05:19:10;;;;;;;;;;;;;;;10.21;100.00;100107.81;6891390;20;19209;-44
2021/10/07 05:21:38;;;;;;;;;;;;;;;10.22;100.00;100101.53;6895125;20;7611;-43
2021/10/07 05:24:06;;;;;;;;;;;;;;;10.18;100.00;100109.81;6894440;20;19247;-45
2021/10/07 05:26:33;;;;;;;;;;;;;;;10.14;100.00;100106.44;6893373;20;18282;-43
2021/10/07 05:29:01;;;;;;;;;;;;;;;10.16;100.00;100103.66;6893099;20;7686;-44
2021/10/07 05:31:28;;;;;;;;;;;;;;;10.13;100.00;100104.69;6892954;20;14160;-44
2021/10/07 05:33:56;;;;;;;;;;;;;;;10.28;100.00;100106.59;6894566;20;19223;-43
2021/10/07 05:36:24;;;;;;;;;;;;;;;10.18;100.00;100108.00;6892841;20;17310;-45
2021/10/07 05:38:54;;;;;;;;;;;;;;;10.10;100.00;100108.41;6890843;20;7515;-44
2021/10/07 05:41:22;;;;;;;;;;;;;;;10.18;100.00;100113.38;6893740;20;18679;-44
2021/10/07 05:43:49;;;;;;;;;;;;;;;10.08;100.00;100112.13;6893585;20;7536;-44
2021/10/07 05:46:17;;;;;;;;;;;;;;;10.09;100.00;100109.38;6892192;20;7605;-44
2021/10/07 05:48:45;;;;;;;;;;;;;;;10.10;100.00;100110.22;6889454;20;19072;-45
2021/10/07 05:51:13;;;;;;;;;;;;;;;10.18;100.00;100107.13;6891943;20;7530;-45
2021/10/07 05:53:40;;;;;;;;;;;;;;;10.15;100.00;100107.31;6890661;20;19023;-43
2021/10/07 05:56:08;;;;;;;;;;;;;;;10.12;100.00;100119.06;6891657;20;18491;-43
2021/10/07 05:58:36;;;;;;;;;;;;;;;10.13;100.00;100115.41;6891413;20;17006;-44
2021/10/07 06:01:03;;;;;;;;;;;;;;;10.18;100.00;100118.72;6891979;20;18026;-44
2021/10/07 06:03:31;;;;;;;;;;;;;;;10.39;100.00;100115.88;6892883;20;19548;-44
2021/10/07 06:05:58;;;;;;;;;;;;;;;10.17;100.00;100125.06;6893254;20;14853;-43
2021/10/07 06:08:26;;;;;;;;;;;;;;;10.11;100.00;100115.53;6890487;20;19117;-44
2021/10/07 06:10:53;;;;;;;;;;;;;;;10.09;100.00;100121.91;6892535;20;7518;-44
2021/10/07 06:13:21;;;;;;;;;;;;;;;10.19;100.00;100136.59;6891609;20;7522;-43
2021/10/07 06:15:49;;;;;;;;;;;;;;;10.11;100.00;100133.44;6893997;20;7691;-45
2021/10/07 06:18:19;;;;;;;;;;;;;;;10.33;100.00;100133.19;6890689;20;16514;-44
2021/10/07 06:20:47;;;;;;;;;;;;;;;10.17;100.00;100141.16;6893773;20;19058;-46
2021/10/07 06:23:15;;;;;;;;;;;;;;;10.31;100.00;100146.69;6888617;20;7529;-43
2021/10/07 06:25:42;;;;;;;;;;;;;;;10.20;100.00;100151.72;6892403;20;17657;-43
2021/10/07 06:28:10;;;;;;;;;;;;;;;10.22;100.00;100155.19;6891858;20;7628;-43
2021/10/07 06:30:38;;;;;;;;;;;;;;;10.17;100.00;100154.56;6891035;20;18448;-43
2021/10/07 06:33:05;;;;;;;;;;;;;;;10.35;100.00;100154.56;6885334;20;18848;-43
2021/10/07 06:35:33;;;;;;;;;;;;;;;10.27;100.00;100155.88;6891793;20;7909;-43
2021/10/07 06:38:01;;;;;;;;;;;;;;;10.32;100.00;100153.81;6887118;20;8140;-42
2021/10/07 06:40:29;;;;;;;;;;;;;;;10.40;100.00;100157.88;6891997;20;19570;-43
2021/10/07 06:42:57;;;;;;;;;;;;;;;10.23;100.00;100159.59;6890649;20;19120;-44
2021/10/07 06:45:26;;;;;;;;;;;;;;;10.26;100.00;100159.44;6892258;20;18870;-45
2021/10/07 06:47:53;;;;;;;;;;;;;;;10.33;100.00;100155.53;6890384;20;18921;-44
2021/10/07 06:50:21;;;;;;;;;;;;;;;10.44;100.00;100162.16;6892677;20;15429;-43
2021/10/07 06:52:49;;;;;;;;;;;;;;;10.44;100.00;100152.25;6891965;20;7630;-44
2021/10/07 06:55:21;;;;;;;;;;;;;;;10.59;100.00;100165.84;6892403;20;7526;-43
2021/10/07 06:57:49;;;;;;;;;;;;;;;10.54;100.00;100164.25;6896638;20;7518;-43
2021/10/07 07:00:17;;;;;;;;;;;;;;;10.74;100.00;100170.34;6898632;20;7522;-44
2021/10/07 07:02:44;;;;;;;;;;;;;;;10.65;100.00;100171.72;6897191;20;18923;-43
2021/10/07 07:05:12;;;;;;;;;;;;;;;10.77;100.00;100178.25;6898805;20;8007;-44
2021/10/07 07:07:40;;;;;;;;;;;;;;;10.67;100.00;100166.28;6897544;20;7647;-45
2021/10/07 07:10:08;;;;;;;;;;;;;;;10.74;99.76;100171.25;6897974;20;17561;-44
2021/10/07 07:12:42;;;;;;;;;;;;;;;10.67;100.00;100171.66;6897681;20;7620;-47
2021/10/07 07:15:10;;;;;;;;;;;;;;;10.73;99.51;100174.84;6898087;20;7562;-43
2021/10/07 07:17:37;;;;;;;;;;;;;;;10.77;99.58;100173.75;6895528;20;18698;-43
2021/10/07 07:20:06;;;;;;;;;;;;;;;10.79;99.00;100175.47;6897595;20;19203;-43
2021/10/07 07:22:35;;;;;;;;;;;;;;;10.86;97.94;100183.13;6896716;20;7522;-43
2021/10/07 07:25:03;;;;;;;;;;;;;;;10.82;99.89;100178.00;6898261;20;7589;-43
2021/10/07 07:27:31;;;;;;;;;;;;;;;10.96;99.83;100170.06;6894442;20;7577;-43
2021/10/07 07:29:59;;;;;;;;;;;;;;;10.96;96.81;100178.13;6897829;20;19010;-44
2021/10/07 07:32:26;;;;;;;;;;;;;;;10.99;97.42;100180.63;6896998;20;7518;-43
2021/10/07 07:34:54;;;;;;;;;;;;;;;10.96;97.42;100180.81;6897831;20;7518;-44
2021/10/07 07:37:21;;;;;;;;;;;;;;;11.35;95.80;100177.69;6896555;20;15165;-42
2021/10/07 07:39:49;;;;;;;;;;;;;;;11.13;93.94;100183.41;6897298;20;17937;-42
2021/10/07 07:42:17;;;;;;;;;;;;;;;11.47;94.65;100189.56;6896861;20;7557;-43
2021/10/07 07:44:44;;;;;;;;;;;;;;;11.52;94.95;100198.22;6898110;20;7545;-42
2021/10/07 07:47:12;;;;;;;;;;;;;;;11.31;94.98;100196.78;6896190;20;7522;-42
2021/10/07 07:49:40;;;;;;;;;;;;;;;11.35;94.61;100203.72;6897632;20;14613;-42
2021/10/07 07:52:08;;;;;;;;;;;;;;;11.45;92.65;100196.84;6894153;20;20213;-42
2021/10/07 07:54:36;;;;;;;;;;;;;;;11.45;92.58;100198.66;6898048;20;7715;-42
2021/10/07 07:57:03;;;;;;;;;;;;;;;11.38;93.92;100198.16;6894254;20;18647;-43
2021/10/07 07:59:31;;;;;;;;;;;;;;;11.70;91.87;100192.75;6896293;20;19076;-43
2021/10/07 08:01:59;;;;;;;;;;;;;;;11.61;92.63;100192.34;6895556;20;19907;-42
2021/10/07 08:04:26;;;;;;;;;;;;;;;11.73;92.03;100206.03;6896599;20;7609;-42
2021/10/07 08:06:54;;;;;;;;;;;;;;;11.70;91.35;100199.00;6895554;20;15272;-42
2021/10/07 08:09:23;;;;;;;;;;;;;;;11.78;92.27;100199.41;6893255;20;7526;-42
2021/10/07 08:11:51;;;;;;;;;;;;;;;11.71;90.07;100205.25;6892839;20;7551;-43
2021/10/07 08:14:19;;;;;;;;;;;;;;;11.90;91.51;100203.28;6893986;20;7631;-42
2021/10/07 08:16:46;;;;;;;;;;;;;;;12.10;90.94;100206.59;6894932;20;7518;-42
2021/10/07 08:19:14;;;;;;;;;;;;;;;11.95;90.25;100203.84;6894384;20;19041;-41
2021/10/07 08:21:42;;;;;;;;;;;;;;;12.04;89.89;100203.31;6893234;20;7533;-43
2021/10/07 08:24:11;;;;;;;;;;;;;;;12.06;89.16;100211.31;6896194;20;19482;-42
2021/10/07 08:26:39;;;;;;;;;;;;;;;12.42;89.32;100213.59;6895408;20;19177;-40
2021/10/07 08:29:07;;;;;;;;;;;;;;;12.47;87.93;100211.47;6895048;20;14763;-41
2021/10/07 08:31:35;;;;;;;;;;;;;;;12.56;88.57;100206.50;6896050;20;18786;-42
2021/10/07 08:34:03;;;;;;;;;;;;;;;12.42;87.06;100213.59;6895138;20;7526;-42
2021/10/07 08:36:32;;;;;;;;;;;;;;;12.61;87.01;100217.84;6895058;20;18678;-43
2021/10/07 08:39:00;;;;;;;;;;;;;;;12.65;85.30;100219.41;6894016;20;18704;-42
2021/10/07 08:41:27;;;;;;;;;;;;;;;12.78;85.47;100220.38;6895708;20;15941;-42
2021/10/07 08:43:55;;;;;;;;;;;;;;;12.94;84.39;100218.44;6897268;20;7518;-43
2021/10/07 08:46:23;;;;;;;;;;;;;;;13.02;84.18;100222.50;6894043;20;7526;-42
2021/10/07 08:48:51;;;;;;;;;;;;;;;13.28;84.48;100213.66;6895345;20;15685;-42
2021/10/07 08:51:19;;;;;;;;;;;;;;;13.30;81.91;100217.13;6893454;20;7664;-42
2021/10/07 08:53:47;;;;;;;;;;;;;;;13.44;82.27;100212.66;6892798;20;7522;-42
2021/10/07 08:56:14;;;;;;;;;;;;;;;13.42;81.21;100223.53;6896094;20;7506;-42
2021/10/07 08:58:42;;;;;;;;;;;;;;;13.56;79.62;100225.31;6895421;20;7540;-42
2021/10/07 09:01:46;;;;;;;;;;;;;;;13.25;78.76;100226.44;6894944;20;19726;-43
2021/10/07 09:04:25;;;;;;;;;;;;;;;13.33;78.81;100235.78;6895855;20;7996;-43
2021/10/07 09:07:06;;;;;;;;;;;;;;;13.24;78.00;100232.78;6894376;20;7510;-41
2021/10/07 09:09:39;;;;;;;;;;;;;;;13.13;77.22;100230.75;6896099;20;7522;-42
2021/10/07 09:12:16;;;;;;;;;;;;;;;13.04;77.79;100218.75;6894884;20;19156;-41
2021/10/07 09:14:47;;;;;;;;;;;;;;;13.18;79.09;100223.25;6895797;20;20622;-46
2021/10/07 09:17:19;;;;;;;;;;;;;;;13.13;77.74;100209.19;6894022;20;17760;-42
2021/10/07 09:19:49;;;;;;;;;;;;;;;13.10;77.60;100220.19;6893200;20;7597;-43
2021/10/07 09:22:28;;;;;;;;;;;;;;;13.14;79.23;100221.72;6895149;20;7699;-45
2021/10/07 09:25:01;;;;;;;;;;;;;;;13.30;78.60;100227.03;6893718;20;7522;-42
2021/10/07 09:27:35;;;;;;;;;;;;;;;13.17;78.44;100219.69;6894825;20;8102;-43
2021/10/07 09:30:09;;;;;;;;;;;;;;;13.53;78.78;100222.84;6894349;20;7518;-44
2021/10/07 09:32:45;;;;;;;;;;;;;;;13.58;78.21;100223.41;6898769;20;18111;-46
2021/10/07 09:35:19;;;;;;;;;;;;;;;13.58;77.20;100220.69;6897001;20;19013;-43
2021/10/07 09:37:48;;;;;;;;;;;;;;;13.70;76.91;100224.44;6892388;20;7526;-43
2021/10/07 09:40:23;;;;;;;;;;;;;;;13.84;76.89;100211.75;6897681;20;20336;-42
2021/10/07 09:42:56;;;;;;;;;;;;;;;14.15;77.64;100212.38;6897769;20;7544;-43
2021/10/07 09:45:34;;;;;;;;;;;;;;;14.02;77.59;100215.06;6897826;20;18313;-44
2021/10/07 09:48:05;;;;;;;;;;;;;;;14.36;77.35;100217.31;6895363;20;18202;-43
2021/10/07 09:50:37;;;;;;;;;;;;;;;14.14;75.02;100207.97;6899538;20;7522;-42
2021/10/07 09:53:10;;;;;;;;;;;;;;;13.91;76.32;100209.50;6896848;20;7534;-42
2021/10/07 09:55:38;;;;;;;;;;;;;;;13.98;76.67;100216.25;6895696;20;18342;-42
2021/10/07 09:58:09;;;;;;;;;;;;;;;14.30;75.49;100212.28;6895897;20;18677;-43
2021/10/07 10:00:57;;;;;;;;;;;;;;;14.09;73.84;100215.53;6896848;20;17979;-42
2021/10/07 10:03:25;;;;;;;;;;;;;;;14.19;74.31;100219.31;6899183;20;7593;-43
2021/10/07 10:05:53;;;;;;;;;;;;;;;14.03;75.06;100216.81;6897474;20;7530;-43
2021/10/07 10:08:22;;;;;;;;;;;;;;;14.38;74.79;100215.38;6894759;20;7526;-43
2021/10/07 10:10:53;;;;;;;;;;;;;;;14.14;74.87;100210.66;6895445;20;8110;-42
2021/10/07 10:13:21;;;;;;;;;;;;;;;14.48;74.92;100217.31;6895680;20;7526;-42
2021/10/07 10:15:50;;;;;;;;;;;;;;;14.62;74.75;100219.09;6897794;20;7544;-43
2021/10/07 10:18:18;;;;;;;;;;;;;;;14.17;74.31;100215.00;6894766;20;7834;-42
2021/10/07 10:20:53;;;;;;;;;;;;;;;14.19;74.77;100216.63;6896793;20;15882;-42
2021/10/07 10:23:24;;;;;;;;;;;;;;;14.20;74.65;100204.84;6893730;20;18124;-42
2021/10/07 10:26:09;;;;;;;;;;;;;;;14.20;75.08;100215.66;6896961;20;18755;-41
2021/10/07 10:28:45;;;;;;;;;;;;;;;14.28;75.77;100221.38;6895577;20;7498;-42
2021/10/07 10:31:35;;;;;;;;;;;;;;;14.24;74.94;100211.78;6894070;20;19365;-44
2021/10/07 10:34:13;;;;;;;;;;;;;;;14.23;74.91;100214.56;6893842;20;7698;-43
2021/10/07 10:36:58;;;;;;;;;;;;;;;14.12;74.69;100207.19;6896577;20;8007;-42
2021/10/07 10:39:33;;;;;;;;;;;;;;;14.09;74.48;100203.84;6892979;20;15390;-42
2021/10/07 10:42:05;;;;;;;;;;;;;;;14.00;73.65;100210.72;6897635;20;7988;-43
2021/10/07 10:44:36;;;;;;;;;;;;;;;14.02;73.94;100208.78;6896092;20;7518;-42
2021/10/07 10:47:06;;;;;;;;;;;;;;;14.07;73.70;100208.50;6897384;20;7533;-43
2021/10/07 10:49:51;;;;;;;;;;;;;;;14.15;73.51;100208.81;6896138;20;14654;-42
2021/10/07 10:52:37;;;;;;;;;;;;;;;14.28;74.00;100207.88;6894813;20;17239;-44
2021/10/07 10:55:25;;;;;;;;;;;;;;;14.41;73.80;100205.19;6891874;20;7707;-44
2021/10/07 10:58:05;;;;;;;;;;;;;;;14.55;74.63;100206.97;6892941;20;17129;-42
2021/10/07 11:00:44;;;;;;;;;;;;;;;14.37;73.46;100208.22;6894512;20;19505;-42
2021/10/07 11:03:19;;;;;;;;;;;;;;;14.52;73.05;100209.84;6896812;20;7649;-43
2021/10/07 11:06:06;;;;;;;;;;;;;;;14.43;72.44;100205.09;6894223;20;19348;-43
2021/10/07 11:08:42;;;;;;;;;;;;;;;14.42;71.79;100211.47;6892495;20;19958;-42
2021/10/07 11:11:35;;;;;;;;;;;;;;;14.54;71.06;100221.47;6896096;20;7573;-42
2021/10/07 11:14:03;;;;;;;;;;;;;;;14.82;72.25;100223.06;6891017;20;18170;-44
2021/10/07 11:16:32;;;;;;;;;;;;;;;14.78;70.87;100215.31;6891810;20;7545;-44
2021/10/07 11:19:00;;;;;;;;;;;;;;;15.13;69.37;100213.66;6893316;20;7529;-42
2021/10/07 11:21:28;;;;;;;;;;;;;;;15.31;68.60;100210.59;6891367;20;19254;-42
2021/10/07 11:23:56;;;;;;;;;;;;;;;15.52;69.07;100209.00;6895205;20;17883;-41
2021/10/07 11:26:31;;;;;;;;;;;;;;;16.08;68.08;100222.00;6892686;20;17845;-42
2021/10/07 11:28:59;;;;;;;;;;;;;;;15.72;68.18;100222.97;6892944;20;18800;-44
2021/10/07 11:31:27;;;;;;;;;;;;;;;15.47;69.18;100213.91;6892013;20;7582;-42
2021/10/07 11:33:58;;;;;;;;;;;;;;;15.23;69.13;100207.59;6895231;20;7526;-48
2021/10/07 11:36:29;;;;;;;;;;;;;;;15.11;68.75;100214.72;6894488;20;17746;-45
2021/10/07 11:38:57;;;;;;;;;;;;;;;14.87;68.75;100201.13;6892633;20;16908;-43
2021/10/07 11:41:34;;;;;;;;;;;;;;;14.82;68.92;100209.56;6893302;20;19392;-48
2021/10/07 11:44:04;;;;;;;;;;;;;;;14.91;69.89;100218.88;6899581;20;7522;-44
2021/10/07 11:46:35;;;;;;;;;;;;;;;14.84;69.39;100212.16;6899388;20;17945;-43
2021/10/07 11:49:05;;;;;;;;;;;;;;;14.85;70.32;100205.78;6896944;20;12220;-43
2021/10/07 11:51:34;;;;;;;;;;;;;;;14.84;70.69;100204.91;6899897;20;18314;-44
2021/10/07 11:54:04;;;;;;;;;;;;;;;14.92;70.20;100209.78;6895447;20;7983;-44
2021/10/07 11:56:35;;;;;;;;;;;;;;;14.86;69.42;100204.81;6899535;20;7662;-44
2021/10/07 11:59:06;;;;;;;;;;;;;;;15.11;69.11;100217.44;6897272;20;18046;-44
2021/10/07 12:01:38;;;;;;;;;;;;;;;15.09;69.44;100212.16;6900953;20;18214;-44
2021/10/07 12:04:08;;;;;;;;;;;;;;;15.35;69.75;100212.13;6899774;20;16076;-44
2021/10/07 12:06:37;;;;;;;;;;;;;;;15.44;68.42;100208.72;6900303;20;15037;-44
2021/10/07 12:09:12;;;;;;;;;;;;;;;15.64;68.98;100206.38;6895680;20;7620;-46
2021/10/07 12:11:40;;;;;;;;;;;;;;;15.40;66.50;100203.63;6898443;20;7534;-45
2021/10/07 12:14:08;;;;;;;;;;;;;;;15.78;68.22;100208.97;6899368;20;7536;-43
2021/10/07 12:16:42;;;;;;;;;;;;;;;15.83;67.23;100214.91;6898978;20;7518;-42
2021/10/07 12:19:13;;;;;;;;;;;;;;;15.39;66.76;100207.31;6897944;20;19314;-43
2021/10/07 12:21:55;;;;;;;;;;;;;;;15.29;67.47;100201.72;6898713;20;19093;-44
2021/10/07 12:24:26;;;;;;;;;;;;;;;15.34;67.84;100208.50;6900101;20;19429;-43
2021/10/07 12:26:59;;;;;;;;;;;;;;;15.30;67.53;100209.75;6899599;20;7589;-46
2021/10/07 12:29:31;;;;;;;;;;;;;;;15.43;68.09;100215.13;6896430;20;13539;-42
2021/10/07 12:32:06;;;;;;;;;;;;;;;15.32;67.31;100209.59;6899254;20;7518;-43
2021/10/07 12:34:37;;;;;;;;;;;;;;;15.29;66.28;100207.13;6897768;20;7514;-45
2021/10/07 12:37:11;;;;;;;;;;;;;;;15.43;66.93;100209.72;6899003;20;7639;-42
2021/10/07 12:39:47;;;;;;;;;;;;;;;15.52;67.37;100217.13;6898991;20;7522;-42
2021/10/07 12:42:25;;;;;;;;;;;;;;;15.65;67.32;100210.81;6900466;20;10413;-42
2021/10/07 12:44:55;;;;;;;;;;;;;;;15.87;68.38;100200.13;6899408;20;7548;-42
2021/10/07 12:47:30;;;;;;;;;;;;;;;15.64;66.21;100203.66;6897700;20;7581;-43
2021/10/07 12:50:06;;;;;;;;;;;;;;;15.78;66.18;100198.13;6899334;20;18173;-43
2021/10/07 12:52:40;;;;;;;;;;;;;;;15.64;65.47;100217.19;6898538;20;18166;-43
2021/10/07 12:55:18;;;;;;;;;;;;;;;15.63;66.34;100218.19;6897689;20;7518;-43
2021/10/07 12:57:54;;;;;;;;;;;;;;;15.84;66.59;100213.91;6899078;20;7541;-43